Potomac, Montana
Current Conditions -  °F | °C
As of 6:53 AM on Friday 24 Oct 2014 (Local Time) from KMSO Reporting Station
Overcast Overcast  
Wind Chill:   Ceiling: 4900
Heat Index:   Visibility: 10mi
Dew Point:   Wind: 5mph
Humidity: 97%   Direction: 270°W
Pressure: 30.1"   Gusts: NA
Location:  46.8727°N, 113.587°W
Report Text: KMSO 241253Z 27004KT 10SM OVC049 06/06 A3010 RMK AO2 SLP198 T00610056
Loading
Personal Weather Stations






























Interactive Weather Map
Tropical Storm Tracking
New forecast layout! Learn more

10-Day Weather Forecast

Advertisements
Track Severe Weather on mobile